Time;durP1;ratioP1;P1;durP2;ratioP2;P2;SDS_P1;SDS_P2;PMS_P1;PMS_P2;Temp;Humidity;BMP_temperature;BMP_pressure;BME280_temperature;BME280_humidity;BME280_pressure;Samples;Min_cycle;Max_cycle;Signal;HPM_P1;HPM_P2
2022/11/15 00:00:29;;;;;;;9.05;5.95;;;;;;;23.31;23.81;98470.47;6215529;23;19915;-80
2022/11/15 00:02:55;;;;;;;11.65;7.40;;;;;;;23.89;23.13;98466.50;6215746;23;19983;-79
2022/11/15 00:05:21;;;;;;;9.50;5.72;;;;;;;22.68;24.43;98461.56;6215045;23;19915;-80
2022/11/15 00:07:47;;;;;;;9.32;5.88;;;;;;;22.07;25.19;98456.13;6216147;23;19907;-80
2022/11/15 00:10:13;;;;;;;8.63;6.50;;;;;;;23.36;23.91;98458.84;6215919;23;19962;-80
2022/11/15 00:12:39;;;;;;;9.63;6.67;;;;;;;23.60;23.18;98443.66;6189917;23;19920;-80
2022/11/15 00:15:06;;;;;;;10.25;6.95;;;;;;;23.27;23.65;98444.47;6189739;23;20014;-80
2022/11/15 00:17:32;;;;;;;11.10;6.85;;;;;;;22.69;24.46;98449.16;6216123;23;20385;-80
2022/11/15 00:19:58;;;;;;;9.88;6.45;;;;;;;23.40;23.61;98441.97;6189405;23;19912;-80
2022/11/15 00:22:24;;;;;;;9.32;6.20;;;;;;;23.56;23.02;98437.31;6216138;23;19907;-80
2022/11/15 00:24:50;;;;;;;8.70;5.53;;;;;;;23.56;23.24;98436.53;6188203;23;19916;-80
2022/11/15 00:27:16;;;;;;;7.97;4.93;;;;;;;24.16;22.45;98438.44;6215860;23;19939;-80
2022/11/15 00:29:43;;;;;;;8.82;6.22;;;;;;;23.07;23.73;98435.94;6216233;23;19915;-81
2022/11/15 00:32:12;;;;;;;8.90;6.40;;;;;;;22.93;24.01;98443.72;6216433;23;19935;-80
2022/11/15 00:34:38;;;;;;;8.38;5.80;;;;;;;22.61;24.45;98433.66;6189083;23;19916;-80
2022/11/15 00:37:05;;;;;;;9.27;6.70;;;;;;;22.62;24.36;98434.44;6215855;23;19912;-80
2022/11/15 00:39:31;;;;;;;10.02;6.13;;;;;;;22.73;24.09;98439.94;6215099;23;20246;-80
2022/11/15 00:41:57;;;;;;;8.77;5.65;;;;;;;21.65;25.49;98432.84;6215679;23;19935;-80
2022/11/15 00:44:23;;;;;;;8.77;5.80;;;;;;;21.93;25.13;98427.06;6215146;23;19918;-80
2022/11/15 00:46:49;;;;;;;7.22;5.40;;;;;;;20.99;26.45;98428.34;6215126;23;19911;-80
2022/11/15 00:49:15;;;;;;;7.75;5.13;;;;;;;21.21;26.23;98413.13;6215540;23;19987;-80
2022/11/15 00:51:41;;;;;;;7.15;5.45;;;;;;;21.78;25.24;98419.94;6214583;23;19912;-79
2022/11/15 00:54:07;;;;;;;8.20;5.93;;;;;;;22.45;24.33;98408.19;6214098;23;19912;-80
2022/11/15 00:56:33;;;;;;;9.07;5.82;;;;;;;22.95;23.55;98410.47;6214384;23;19912;-79
2022/11/15 00:59:00;;;;;;;9.50;5.95;;;;;;;22.34;24.37;98407.53;6215322;23;19916;-79
2022/11/15 01:01:26;;;;;;;9.20;5.75;;;;;;;22.33;24.08;98407.94;6215142;23;19947;-80
2022/11/15 01:03:52;;;;;;;12.35;5.70;;;;;;;21.54;25.28;98406.94;6215226;23;19928;-80
2022/11/15 01:06:18;;;;;;;8.75;6.03;;;;;;;21.63;25.07;98412.88;6213954;23;20378;-79
2022/11/15 01:08:44;;;;;;;6.78;4.30;;;;;;;21.27;25.18;98406.72;6186491;23;19946;-79
2022/11/15 01:11:12;;;;;;;6.63;5.20;;;;;;;21.95;24.44;98410.69;6213994;23;19923;-80
2022/11/15 01:13:39;;;;;;;6.75;4.85;;;;;;;21.73;24.74;98417.59;6215692;23;19915;-81
2022/11/15 01:16:14;;;;;;;7.72;5.00;;;;;;;21.48;25.26;98410.56;6213611;23;19912;-80
2022/11/15 01:18:41;;;;;;;6.78;5.05;;;;;;;21.62;25.00;98410.47;6214426;23;20005;-80
2022/11/15 01:21:15;;;;;;;7.05;5.18;;;;;;;22.20;24.21;98412.44;6215460;23;19912;-80
2022/11/15 01:23:41;;;;;;;6.47;3.93;;;;;;;21.45;24.76;98401.00;6214064;23;20331;-80
2022/11/15 01:26:11;;;;;;;4.88;4.20;;;;;;;22.24;23.88;98411.19;6214017;23;19912;-79
2022/11/15 01:28:39;;;;;;;6.32;4.28;;;;;;;21.73;24.51;98402.81;6213430;23;19912;-80
2022/11/15 01:31:10;;;;;;;8.07;4.93;;;;;;;21.13;25.20;98403.19;6214102;23;20231;-80
2022/11/15 01:33:36;;;;;;;;;;;;;;;21.05;25.08;98396.84;6212389;23;19935;-80
2022/11/15 01:36:12;;;;;;;6.72;4.32;;;;;;;20.89;25.34;98396.47;6213253;23;19941;-80
2022/11/15 01:38:38;;;;;;;6.43;3.88;;;;;;;22.35;23.55;98399.94;6212705;23;20008;-80
2022/11/15 01:41:05;;;;;;;6.00;4.07;;;;;;;23.09;22.42;98401.91;6214116;23;19969;-80
2022/11/15 01:43:36;;;;;;;4.82;3.65;;;;;;;23.48;21.92;98402.19;6213324;23;19916;-80
2022/11/15 01:46:21;;;;;;;6.47;3.90;;;;;;;22.95;22.26;98414.09;6213380;23;20434;-80
2022/11/15 01:48:49;;;;;;;5.43;3.63;;;;;;;21.30;23.98;98411.50;6214224;23;20015;-81
2022/11/15 01:51:18;;;;;;;4.82;3.30;;;;;;;22.48;23.04;98404.59;6212310;23;19915;-79
2022/11/15 01:53:48;;;;;;;4.70;3.20;;;;;;;22.15;23.17;98405.28;6211837;23;19919;-79
2022/11/15 01:56:20;;;;;;;6.38;3.60;;;;;;;21.78;23.65;98403.19;6212992;23;19919;-80
2022/11/15 01:58:46;;;;;;;4.27;3.83;;;;;;;22.52;22.79;98405.34;6213155;23;19943;-80
2022/11/15 02:01:15;;;;;;;4.85;3.33;;;;;;;23.28;21.97;98398.47;6213676;23;20333;-80
2022/11/15 02:03:54;;;;;;;3.70;2.80;;;;;;;24.17;20.90;98390.31;6213797;23;20318;-80
2022/11/15 02:06:21;;;;;;;2.85;2.35;;;;;;;24.85;19.92;98398.31;6213137;23;20479;-80
2022/11/15 02:08:48;;;;;;;3.87;2.73;;;;;;;24.82;20.12;98396.34;6212782;23;19958;-79
2022/11/15 02:11:15;;;;;;;3.67;2.95;;;;;;;25.32;19.45;98392.06;6213164;23;19918;-79
2022/11/15 02:13:41;;;;;;;4.15;2.72;;;;;;;25.52;19.02;98394.88;6214144;23;20235;-79
2022/11/15 02:16:18;;;;;;;3.25;2.95;;;;;;;25.21;19.46;98387.91;6213055;23;19912;-79
2022/11/15 02:18:57;;;;;;;3.97;2.25;;;;;;;25.29;19.45;98390.16;6214751;23;20445;-79
2022/11/15 02:21:48;;;;;;;4.30;2.90;;;;;;;25.06;19.89;98370.56;6213257;23;19908;-79
2022/11/15 02:24:23;;;;;;;4.57;2.53;;;;;;;25.30;19.60;98383.28;6214122;23;20040;-79
2022/11/15 02:26:49;;;;;;;3.20;2.58;;;;;;;25.62;19.15;98374.16;6187659;23;19912;-79
2022/11/15 02:29:32;;;;;;;3.88;2.90;;;;;;;25.63;19.44;98372.13;6216191;23;19912;-79
2022/11/15 02:32:03;;;;;;;4.32;3.00;;;;;;;25.87;18.99;98365.91;6217114;23;19911;-80
2022/11/15 02:35:02;;;;;;;6.03;2.97;;;;;;;25.25;19.31;98375.34;6216913;23;19999;-80
2022/11/15 02:37:39;;;;;;;3.92;3.08;;;;;;;24.97;19.52;98367.53;6216284;23;20067;-79
2022/11/15 02:40:43;;;;;;;4.22;3.05;;;;;;;24.94;19.85;98364.81;6217108;23;19904;-80
2022/11/15 02:46:09;;;;;;;3.72;2.88;;;;;;;25.45;19.40;98360.50;6216881;23;19918;-80
2022/11/15 02:48:36;;;;;;;3.55;2.92;;;;;;;25.81;18.71;98362.03;6217628;23;20009;-80
2022/11/15 02:51:03;;;;;;;3.95;2.70;;;;;;;25.94;18.57;98357.28;6216721;23;19908;-79
2022/11/15 02:53:29;;;;;;;3.10;2.78;;;;;;;25.91;18.62;98354.56;6216740;23;19919;-80
2022/11/15 02:55:57;;;;;;;3.55;2.88;;;;;;;25.61;18.58;98352.09;6189850;23;20237;-79
2022/11/15 02:59:01;;;;;;;3.35;2.58;;;;;;;25.32;19.26;98363.19;6215638;23;19912;-80
2022/11/15 03:01:48;;;;;;;4.72;3.08;;;;;;;25.29;19.01;98350.00;6215936;23;20015;-80
2022/11/15 03:04:37;;;;;;;4.10;2.78;;;;;;;25.11;19.07;98343.97;6216806;23;20490;-80
2022/11/15 03:07:14;;;;;;;3.50;2.42;;;;;;;25.13;19.12;98344.34;6216134;23;20009;-79
2022/11/15 03:10:06;;;;;;;3.97;2.58;;;;;;;25.07;19.14;98343.25;6216658;23;20333;-79
2022/11/15 03:12:59;;;;;;;4.30;2.65;;;;;;;24.80;19.20;98329.41;6215568;23;20005;-79
2022/11/15 03:15:37;;;;;;;3.45;2.95;;;;;;;24.50;19.51;98329.56;6214789;23;20016;-79
2022/11/15 03:18:33;;;;;;;3.00;2.58;;;;;;;24.44;19.41;98331.28;6215921;23;20004;-79
2022/11/15 03:21:04;;;;;;;3.03;2.40;;;;;;;24.35;19.57;98331.06;6214524;23;20443;-79
2022/11/15 03:23:32;;;;;;;2.65;2.42;;;;;;;24.67;18.99;98314.38;6215745;23;19916;-79
2022/11/15 03:26:00;;;;;;;2.70;2.42;;;;;;;24.45;19.49;98319.66;6215822;23;20018;-79
2022/11/15 03:28:43;;;;;;;4.45;3.55;;;;;;;24.43;19.39;98319.28;6216605;23;19912;-79
2022/11/15 03:33:58;;;;;;;5.13;2.88;;;;;;;24.37;19.43;98317.38;6215415;23;19938;-79
2022/11/15 03:36:26;;;;;;;3.95;2.95;;;;;;;23.93;20.08;98310.16;6214925;23;20441;-79
2022/11/15 03:38:58;;;;;;;4.03;3.40;;;;;;;23.62;20.23;98311.50;6215336;23;19912;-79
2022/11/15 03:41:35;;;;;;;3.90;3.03;;;;;;;23.45;20.61;98304.19;6215418;23;19987;-79
2022/11/15 03:44:22;;;;;;;4.82;3.17;;;;;;;23.13;21.02;98301.81;6215119;23;19912;-80
2022/11/15 03:47:11;;;;;;;4.10;3.00;;;;;;;22.50;21.73;98307.03;6215992;23;19954;-79
2022/11/15 03:49:42;;;;;;;4.07;3.08;;;;;;;22.97;21.18;98301.66;6187948;23;20009;-79
2022/11/15 03:52:10;;;;;;;4.53;3.20;;;;;;;23.26;20.80;98288.81;6188947;23;19958;-79
2022/11/15 03:54:46;;;;;;;4.80;3.33;;;;;;;23.26;20.79;98286.03;6215437;23;20284;-79
2022/11/15 03:57:12;;;;;;;4.57;2.88;;;;;;;22.91;21.15;98280.94;6214807;23;19912;-79
2022/11/15 03:59:39;;;;;;;4.75;3.72;;;;;;;22.24;22.04;98284.56;6215850;23;19911;-79
2022/11/15 04:02:05;;;;;;;6.00;4.77;;;;;;;22.67;21.73;98277.25;6215228;23;19912;-79
2022/11/15 04:04:31;;;;;;;5.32;3.88;;;;;;;22.72;21.67;98278.81;6214454;23;19944;-79
2022/11/15 04:06:57;;;;;;;5.75;3.80;;;;;;;23.29;20.92;98274.75;6214142;23;19912;-79
2022/11/15 04:09:23;;;;;;;5.15;4.40;;;;;;;22.66;21.48;98270.09;6214936;23;19935;-79
2022/11/15 04:11:49;;;;;;;6.65;4.43;;;;;;;22.18;22.03;98269.44;6215221;23;19919;-79
2022/11/15 04:14:15;;;;;;;5.10;3.38;;;;;;;22.53;21.61;98263.41;6215621;23;19912;-79
2022/11/15 04:16:41;;;;;;;5.80;3.90;;;;;;;22.30;21.99;98264.09;6215941;23;19938;-79
2022/11/15 04:24:36;;;;;;;6.88;4.60;;;;;;;22.38;21.74;98242.44;6215361;23;19943;-79
2022/11/15 04:27:02;;;;;;;7.97;4.70;;;;;;;22.60;21.38;98236.19;6216215;23;19994;-79
2022/11/15 04:29:34;;;;;;;5.28;4.05;;;;;;;22.80;21.26;98229.91;6216417;23;19958;-79
2022/11/15 04:32:05;;;;;;;5.18;4.25;;;;;;;23.03;20.81;98232.78;6216253;23;19916;-79
2022/11/15 04:34:32;;;;;;;6.10;4.30;;;;;;;22.98;20.71;98228.44;6214969;23;19915;-79
2022/11/15 04:37:14;;;;;;;6.65;3.75;;;;;;;22.89;20.50;98227.38;6215001;23;19915;-79
2022/11/15 04:39:41;;;;;;;5.45;4.75;;;;;;;22.16;21.30;98215.94;6215604;23;19916;-79
2022/11/15 04:42:09;;;;;;;6.63;4.63;;;;;;;21.85;21.60;98226.25;6215190;23;19911;-79
2022/11/15 04:44:35;;;;;;;6.30;4.50;;;;;;;21.45;22.16;98222.22;6215328;23;19916;-79
2022/11/15 04:47:02;;;;;;;6.35;4.82;;;;;;;21.79;21.75;98217.53;6215559;23;19912;-79
2022/11/15 04:49:28;;;;;;;5.68;4.00;;;;;;;22.37;21.05;98208.06;6215328;23;20353;-79
2022/11/15 04:51:54;;;;;;;6.43;4.23;;;;;;;23.23;20.24;98212.03;6215130;23;19920;-79
2022/11/15 04:54:20;;;;;;;5.50;4.35;;;;;;;23.68;19.48;98198.47;6215199;23;19959;-79
2022/11/15 04:56:46;;;;;;;6.32;4.40;;;;;;;23.24;19.60;98196.00;6214963;23;19907;-79
2022/11/15 04:59:12;;;;;;;5.95;4.22;;;;;;;23.29;19.46;98199.09;6214998;23;20314;-79
2022/11/15 05:01:38;;;;;;;5.45;3.58;;;;;;;23.39;19.45;98194.56;6188766;23;19955;-79
2022/11/15 05:04:19;;;;;;;5.47;4.13;;;;;;;23.36;19.10;98192.66;6214353;23;19943;-80
2022/11/15 05:06:50;;;;;;;6.13;4.45;;;;;;;23.23;19.23;98181.22;6215276;23;20044;-80
2022/11/15 05:09:19;;;;;;;;;;;;;;;23.40;19.08;98186.97;6215027;23;19939;-80
2022/11/15 05:11:46;;;;;;;7.38;4.45;;;;;;;23.98;18.51;98189.88;6215019;23;19912;-80
2022/11/15 05:14:13;;;;;;;5.38;3.58;;;;;;;23.84;18.38;98186.53;6215634;23;20514;-80
2022/11/15 05:16:40;;;;;;;4.95;3.90;;;;;;;23.98;18.20;98186.28;6212945;23;19974;-80
2022/11/15 05:19:06;;;;;;;5.75;4.15;;;;;;;24.22;17.91;98179.41;6213131;23;19912;-80
2022/11/15 05:21:33;;;;;;;6.10;4.15;;;;;;;24.45;17.52;98172.91;6211277;23;19958;-80
2022/11/15 05:23:59;;;;;;;5.70;4.20;;;;;;;24.49;17.61;98179.22;6213376;23;19916;-80
2022/11/15 05:26:26;;;;;;;4.63;3.67;;;;;;;24.19;17.64;98187.88;6213303;23;19912;-80
2022/11/15 05:28:59;;;;;;;5.57;3.63;;;;;;;24.21;17.96;98180.63;6213374;23;19922;-80
2022/11/15 05:31:26;;;;;;;4.88;3.72;;;;;;;24.51;17.37;98177.56;6211264;23;19938;-80
2022/11/15 05:33:53;;;;;;;6.05;3.78;;;;;;;24.54;17.32;98184.31;6213003;23;19952;-81
2022/11/15 05:36:40;;;;;;;4.70;3.37;;;;;;;24.36;17.42;98172.69;6211562;23;19954;-79
2022/11/15 05:39:08;;;;;;;5.78;3.72;;;;;;;24.50;17.38;98172.38;6185230;23;19967;-79
2022/11/15 05:41:39;;;;;;;5.32;4.10;;;;;;;24.34;17.52;98167.50;6212325;23;19912;-79
2022/11/15 05:44:09;;;;;;;4.93;4.00;;;;;;;24.24;17.42;98168.53;6186351;23;19990;-80
2022/11/15 05:46:38;;;;;;;4.65;3.80;;;;;;;24.26;17.38;98166.09;6209868;23;20323;-80
2022/11/15 05:49:09;;;;;;;5.20;3.55;;;;;;;24.20;17.54;98164.22;6213277;23;19907;-80
2022/11/15 05:51:35;;;;;;;6.05;3.63;;;;;;;23.93;17.76;98165.13;6210310;23;19916;-80
2022/11/15 05:54:02;;;;;;;6.13;3.73;;;;;;;24.17;17.48;98165.88;6210123;23;20326;-79
2022/11/15 05:56:29;;;;;;;4.60;3.45;;;;;;;24.35;17.31;98163.47;6214015;23;19911;-80
2022/11/15 05:58:57;;;;;;;5.50;3.47;;;;;;;24.50;17.12;98161.16;6214052;23;19912;-80
2022/11/15 06:01:26;;;;;;;5.05;3.30;;;;;;;24.14;17.60;98160.31;6215044;23;19908;-79
2022/11/15 06:03:52;;;;;;;4.82;3.33;;;;;;;24.33;17.31;98163.13;6214726;23;19920;-80
2022/11/15 06:06:18;;;;;;;7.78;4.03;;;;;;;24.25;17.29;98158.09;6214706;23;19916;-80
2022/11/15 06:08:44;;;;;;;6.05;4.57;;;;;;;24.27;17.43;98155.66;6215548;23;20287;-80
2022/11/15 06:11:10;;;;;;;5.53;4.05;;;;;;;24.38;17.36;98156.22;6214439;23;19919;-80
2022/11/15 06:13:36;;;;;;;4.90;3.50;;;;;;;24.13;17.56;98153.16;6188011;23;19934;-80
2022/11/15 06:16:03;;;;;;;5.85;3.60;;;;;;;24.33;17.37;98157.50;6214669;23;19912;-80
2022/11/15 06:18:33;;;;;;;7.45;3.78;;;;;;;24.26;17.44;98154.06;6215298;23;20404;-79
2022/11/15 06:21:00;;;;;;;5.68;4.00;;;;;;;24.19;17.49;98157.03;6214703;23;19908;-79
2022/11/15 06:23:26;;;;;;;6.30;4.78;;;;;;;24.12;17.73;98163.56;6215075;23;19907;-80
2022/11/15 06:25:52;;;;;;;4.88;3.50;;;;;;;24.24;17.39;98160.13;6215201;23;19908;-80
2022/11/15 06:28:18;;;;;;;6.57;4.30;;;;;;;24.49;17.49;98157.56;6214780;23;19923;-80
2022/11/15 06:30:44;;;;;;;8.27;5.05;;;;;;;24.73;17.21;98161.81;6215194;23;19919;-79
2022/11/15 06:33:10;;;;;;;8.68;4.97;;;;;;;24.71;17.19;98158.63;6214991;23;20288;-80
2022/11/15 06:35:37;;;;;;;8.10;5.53;;;;;;;24.63;17.25;98156.44;6215539;23;20314;-79
2022/11/15 06:38:05;;;;;;;8.82;5.28;;;;;;;24.36;17.66;98158.66;6214665;23;19912;-79
2022/11/15 06:40:34;;;;;;;7.32;4.97;;;;;;;23.91;18.08;98163.97;6214956;23;20249;-79
2022/11/15 06:43:01;;;;;;;6.90;4.95;;;;;;;23.67;18.00;98160.44;6215089;23;19962;-79
2022/11/15 06:45:27;;;;;;;7.35;4.95;;;;;;;23.71;18.48;98165.97;6215357;23;19912;-79
2022/11/15 06:47:53;;;;;;;8.20;5.47;;;;;;;23.74;18.45;98167.91;6214966;23;20260;-79
2022/11/15 06:50:19;;;;;;;7.20;4.72;;;;;;;23.90;18.45;98173.59;6214483;23;20165;-79
2022/11/15 06:52:46;;;;;;;5.05;4.00;;;;;;;23.97;18.10;98170.66;6215655;23;19912;-79
2022/11/15 06:55:12;;;;;;;7.50;4.93;;;;;;;23.92;18.17;98168.38;6214730;23;19919;-79
2022/11/15 06:57:45;;;;;;;6.25;4.18;;;;;;;23.95;18.58;98168.28;6214382;23;20323;-79
2022/11/15 07:00:12;;;;;;;5.63;4.47;;;;;;;24.46;18.05;98166.03;6214805;23;19939;-79
2022/11/15 07:02:38;;;;;;;6.22;5.20;;;;;;;24.85;17.54;98166.00;6215013;23;20008;-79
2022/11/15 07:05:04;;;;;;;6.65;4.90;;;;;;;25.08;17.44;98171.44;6214776;23;19926;-79
2022/11/15 07:07:30;;;;;;;7.50;5.35;;;;;;;25.35;17.42;98166.34;6215121;23;19986;-79
2022/11/15 07:09:56;;;;;;;9.23;5.45;;;;;;;25.56;16.96;98170.63;6214310;23;19912;-79
2022/11/15 07:12:22;;;;;;;7.90;5.22;;;;;;;25.66;17.24;98165.97;6215182;23;19985;-79
2022/11/15 07:14:48;;;;;;;6.90;4.72;;;;;;;25.74;17.14;98168.13;6214650;23;19912;-80
2022/11/15 07:17:14;;;;;;;6.40;4.65;;;;;;;25.85;17.14;98168.66;6216524;23;19939;-80
2022/11/15 07:19:41;;;;;;;6.20;4.47;;;;;;;25.90;16.91;98161.69;6215788;23;19937;-80
2022/11/15 07:22:07;;;;;;;7.63;4.78;;;;;;;25.95;17.39;98173.16;6216874;23;20307;-80
2022/11/15 07:24:33;;;;;;;13.02;5.82;;;;;;;25.89;17.32;98162.91;6217002;23;19991;-79
2022/11/15 07:26:59;;;;;;;12.88;6.80;;;;;;;25.10;18.16;98166.16;6215941;23;20314;-80
2022/11/15 07:29:25;;;;;;;9.35;5.18;;;;;;;24.80;18.68;98160.88;6217284;23;19912;-80
2022/11/15 07:31:51;;;;;;;8.57;4.38;;;;;;;25.06;18.33;98156.25;6216698;23;19919;-79
2022/11/15 07:34:17;;;;;;;7.10;4.53;;;;;;;25.35;18.21;98146.66;6216587;23;19920;-80
2022/11/15 07:36:43;;;;;;;8.30;4.80;;;;;;;25.67;18.06;98151.44;6214711;23;19971;-80
2022/11/15 07:39:09;;;;;;;7.60;4.68;;;;;;;25.78;18.19;98143.53;6216505;23;20211;-80
2022/11/15 07:41:35;;;;;;;8.73;5.22;;;;;;;25.53;18.43;98135.00;6216721;23;19987;-80
2022/11/15 07:44:02;;;;;;;7.37;5.63;;;;;;;24.64;19.61;98136.34;6215221;23;19907;-80
2022/11/15 07:46:28;;;;;;;7.72;5.00;;;;;;;24.39;20.32;98130.50;6216746;23;19931;-79
2022/11/15 07:48:54;;;;;;;7.80;5.70;;;;;;;24.32;20.29;98121.47;6215980;23;20293;-80
2022/11/15 07:51:20;;;;;;;9.60;5.65;;;;;;;24.83;19.89;98128.34;6189878;23;19923;-80
2022/11/15 07:53:46;;;;;;;7.32;5.22;;;;;;;25.25;19.81;98130.09;6215523;23;19912;-80
2022/11/15 07:56:13;;;;;;;7.13;5.05;;;;;;;25.05;19.88;98130.16;6216863;23;19915;-80
2022/11/15 07:58:39;;;;;;;11.35;7.00;;;;;;;24.05;21.82;98119.59;6216078;23;20245;-80
2022/11/15 08:01:07;;;;;;;10.02;5.82;;;;;;;23.79;22.06;98120.53;6216136;23;19942;-80
2022/11/15 08:03:34;;;;;;;8.25;6.32;;;;;;;22.97;23.33;98116.84;6189536;23;19908;-82
2022/11/15 08:06:00;;;;;;;9.02;6.57;;;;;;;23.61;22.59;98119.31;6215974;23;19912;-80
2022/11/15 08:08:26;;;;;;;7.05;5.25;;;;;;;24.63;21.44;98112.31;6216120;23;20310;-80
2022/11/15 08:10:52;;;;;;;8.27;6.13;;;;;;;25.42;20.63;98123.97;6216206;23;19939;-80
2022/11/15 08:13:18;;;;;;;9.15;5.88;;;;;;;25.86;20.36;98122.38;6216878;23;19940;-80
2022/11/15 08:15:44;;;;;;;7.07;5.10;;;;;;;26.51;19.85;98120.06;6216550;23;19907;-80
2022/11/15 08:18:14;;;;;;;9.70;5.50;;;;;;;26.95;19.21;98109.06;6216126;23;19990;-80
2022/11/15 08:20:41;;;;;;;8.02;5.53;;;;;;;26.40;19.60;98105.53;6216638;23;19966;-80
2022/11/15 08:23:08;;;;;;;8.93;5.82;;;;;;;26.43;20.16;98107.47;6215797;23;19916;-79
2022/11/15 08:25:34;;;;;;;7.80;5.00;;;;;;;24.97;22.14;98099.91;6216501;23;19903;-80
2022/11/15 08:28:03;;;;;;;6.35;4.80;;;;;;;23.26;24.79;98101.94;6216502;23;19947;-80
2022/11/15 08:30:30;;;;;;;6.37;5.17;;;;;;;22.20;25.71;98097.22;6216203;23;19904;-80
2022/11/15 08:32:58;;;;;;;7.82;5.35;;;;;;;22.00;26.29;98102.69;6216358;23;19998;-80
2022/11/15 08:35:24;;;;;;;6.55;4.97;;;;;;;22.54;26.11;98097.91;6216464;23;19969;-80
2022/11/15 08:37:53;;;;;;;6.82;4.40;;;;;;;23.45;24.57;98100.41;6216399;23;19912;-80
2022/11/15 08:40:19;;;;;;;5.70;4.63;;;;;;;23.06;25.21;98097.47;6215805;23;19950;-80
2022/11/15 08:42:47;;;;;;;5.05;3.65;;;;;;;22.96;25.47;98098.47;6216251;23;19942;-80
2022/11/15 08:45:13;;;;;;;5.15;4.38;;;;;;;23.92;24.20;98096.22;6215414;23;19953;-80
2022/11/15 08:47:39;;;;;;;6.40;4.40;;;;;;;24.08;23.93;98091.94;6215980;23;19908;-80
2022/11/15 08:50:06;;;;;;;5.82;4.45;;;;;;;24.23;24.23;98099.59;6216269;23;20334;-80
2022/11/15 08:52:32;;;;;;;6.13;4.38;;;;;;;24.17;24.31;98108.97;6216079;23;20059;-80
2022/11/15 08:54:59;;;;;;;5.03;4.20;;;;;;;24.29;24.35;98105.50;6216123;23;19911;-80
2022/11/15 08:57:28;;;;;;;4.93;4.43;;;;;;;23.31;25.54;98106.25;6215830;23;19955;-80
2022/11/15 08:59:54;;;;;;;7.78;5.65;;;;;;;23.44;25.03;98104.41;6215730;23;19939;-80
2022/11/15 09:02:20;;;;;;;8.35;5.68;;;;;;;24.52;24.36;98094.13;6216375;23;19911;-80
2022/11/15 09:04:46;;;;;;;8.25;5.53;;;;;;;24.71;23.95;98090.47;6216036;23;19915;-80
2022/11/15 09:07:13;;;;;;;7.50;5.47;;;;;;;25.41;23.31;98093.50;6216072;23;19915;-80
2022/11/15 09:09:39;;;;;;;6.72;4.75;;;;;;;26.01;22.61;98094.63;6216031;23;19914;-80
2022/11/15 09:12:06;;;;;;;9.65;4.80;;;;;;;25.18;23.52;98099.34;6215814;23;19943;-80
2022/11/15 09:14:33;;;;;;;6.90;5.32;;;;;;;23.83;25.52;98100.84;6215004;23;19908;-80
2022/11/15 09:16:59;;;;;;;7.13;4.93;;;;;;;24.42;24.87;98092.38;6215715;23;19907;-80
2022/11/15 09:19:25;;;;;;;8.15;4.97;;;;;;;24.35;24.69;98095.34;6215678;23;19912;-80
2022/11/15 09:21:52;;;;;;;8.50;6.32;;;;;;;21.64;28.96;98092.31;6215794;23;19918;-80
2022/11/15 09:24:18;;;;;;;10.45;6.43;;;;;;;21.47;29.26;98096.91;6216158;23;19908;-81
2022/11/15 09:26:44;;;;;;;7.80;6.05;;;;;;;23.23;26.87;98082.38;6215763;23;19931;-80
2022/11/15 09:29:11;;;;;;;6.47;4.80;;;;;;;23.94;25.80;98082.56;6215304;23;19924;-80
2022/11/15 09:31:37;;;;;;;7.95;6.38;;;;;;;23.22;26.95;98089.97;6215495;23;19912;-80
2022/11/15 09:34:03;;;;;;;8.23;5.72;;;;;;;25.00;24.61;98080.13;6215503;23;19923;-81
2022/11/15 09:36:29;;;;;;;7.93;6.32;;;;;;;25.79;24.20;98083.22;6215425;23;19914;-80
2022/11/15 09:38:57;;;;;;;7.53;6.05;;;;;;;26.94;22.89;98073.66;6215287;23;19923;-80
2022/11/15 09:41:50;;;;;;;8.40;6.55;;;;;;;27.61;22.19;98068.50;6215479;23;19930;-80
2022/11/15 09:44:19;;;;;;;8.50;6.43;;;;;;;28.15;21.21;98071.72;6215886;23;20015;-80
2022/11/15 09:46:51;;;;;;;7.72;5.82;;;;;;;28.31;21.01;98065.06;6215167;23;20056;-80
2022/11/15 09:49:18;;;;;;;5.97;5.00;;;;;;;26.86;22.62;98075.13;6215526;23;20009;-80
2022/11/15 09:51:48;;;;;;;6.50;5.38;;;;;;;26.01;23.91;98080.56;6214781;23;19975;-80
2022/11/15 09:54:37;;;;;;;7.57;6.07;;;;;;;25.98;23.89;98067.38;6215145;23;19954;-80
2022/11/15 09:57:11;;;;;;;9.65;6.32;;;;;;;26.63;22.91;98067.78;6214686;23;19912;-80
2022/11/15 10:00:18;;;;;;;9.20;6.28;;;;;;;25.75;23.91;98081.72;6215095;23;20032;-80
2022/11/15 10:02:57;;;;;;;8.55;5.13;;;;;;;24.93;25.15;98087.94;6215567;23;20104;-80
2022/11/15 10:05:25;;;;;;;10.20;6.73;;;;;;;23.63;26.65;98077.63;6214537;23;20023;-80
2022/11/15 10:08:26;;;;;;;10.93;7.45;;;;;;;23.80;25.78;98077.28;6215474;23;19908;-80
2022/11/15 10:11:00;;;;;;;9.98;7.03;;;;;;;24.92;24.66;98075.94;6215824;23;20100;-80
2022/11/15 10:13:35;;;;;;;7.63;5.95;;;;;;;25.22;24.16;98069.94;6215378;23;20009;-81
2022/11/15 10:16:26;;;;;;;10.68;7.00;;;;;;;24.67;24.52;98067.28;6215294;23;20016;-80
2022/11/15 10:19:05;;;;;;;8.57;5.65;;;;;;;25.44;23.83;98064.53;6188589;23;20023;-81
2022/11/15 10:21:52;;;;;;;10.05;7.13;;;;;;;26.53;22.73;98047.22;6214585;23;20262;-81
2022/11/15 10:24:23;;;;;;;12.80;6.65;;;;;;;27.13;21.52;98044.41;6215444;23;20009;-79
2022/11/15 10:26:50;;;;;;;9.13;6.15;;;;;;;27.67;21.12;98036.44;6215039;23;19943;-80
2022/11/15 10:29:21;;;;;;;11.02;7.32;;;;;;;27.53;21.35;98036.16;6215517;23;20226;-81
2022/11/15 10:31:48;;;;;;;10.15;7.55;;;;;;;27.73;21.13;98030.97;6215363;23;20015;-81
2022/11/15 10:34:18;;;;;;;9.95;6.47;;;;;;;28.08;20.63;98036.06;6215114;23;19967;-80
2022/11/15 10:36:49;;;;;;;7.88;5.65;;;;;;;28.45;20.34;98030.63;6215346;23;20352;-81
2022/11/15 10:39:15;;;;;;;10.75;6.85;;;;;;;28.81;19.73;98022.25;6215032;23;19939;-81
2022/11/15 10:41:42;;;;;;;8.75;6.18;;;;;;;28.71;20.22;98024.28;6215383;23;19912;-79
2022/11/15 10:44:22;;;;;;;10.30;6.35;;;;;;;28.76;20.11;98017.22;6215405;23;20326;-82
2022/11/15 10:47:05;;;;;;;9.23;6.43;;;;;;;28.97;20.10;98015.53;6215179;23;20080;-81
2022/11/15 10:49:33;;;;;;;9.07;6.57;;;;;;;29.26;19.36;98007.44;6216663;23;20005;-82
2022/11/15 10:52:11;;;;;;;9.07;5.78;;;;;;;29.37;19.84;98008.53;6217238;23;19919;-81
2022/11/15 10:54:40;;;;;;;7.68;5.95;;;;;;;29.43;19.58;98009.44;6216725;23;20008;-81
2022/11/15 10:57:12;;;;;;;8.50;5.78;;;;;;;29.41;19.23;97995.00;6190306;23;19979;-81
2022/11/15 10:59:42;;;;;;;9.25;6.22;;;;;;;29.53;19.25;97992.47;6216963;23;20005;-81
2022/11/15 11:02:37;;;;;;;7.30;5.60;;;;;;;29.55;19.48;97987.91;6190422;23;20046;-81
2022/11/15 11:05:25;;;;;;;10.32;6.65;;;;;;;29.63;19.23;97977.06;6217152;23;20017;-80
2022/11/15 11:07:59;;;;;;;8.50;6.40;;;;;;;29.73;19.20;97979.41;6217211;23;20351;-81
2022/11/15 11:10:25;;;;;;;14.82;6.93;;;;;;;29.79;19.26;97976.72;6216764;23;20249;-80
2022/11/15 11:12:51;;;;;;;6.57;4.97;;;;;;;29.93;19.01;97965.53;6217195;23;19912;-80
2022/11/15 11:15:18;;;;;;;9.35;6.63;;;;;;;29.95;18.79;97974.31;6216847;23;19907;-81
2022/11/15 11:17:57;;;;;;;8.48;6.18;;;;;;;30.02;18.94;97964.69;6216777;23;19912;-80
2022/11/15 11:20:33;;;;;;;10.30;6.63;;;;;;;29.88;18.79;97963.34;6217029;23;20013;-81
2022/11/15 11:23:35;;;;;;;7.65;5.68;;;;;;;29.74;19.74;97972.47;6216684;23;20325;-81
2022/11/15 11:26:29;;;;;;;10.10;7.47;;;;;;;29.81;19.50;97969.34;6216648;23;20036;-80
2022/11/15 11:29:34;;;;;;;10.02;6.38;;;;;;;29.68;19.62;97970.75;6216539;23;20066;-81
2022/11/15 11:32:27;;;;;;;9.00;6.70;;;;;;;29.64;19.28;97973.75;6190108;23;20083;-80
2022/11/15 11:35:14;;;;;;;6.88;5.28;;;;;;;29.79;19.50;97968.25;6215382;23;20099;-81
2022/11/15 11:37:51;;;;;;;8.85;6.80;;;;;;;29.52;19.81;97965.44;6215847;23;20481;-80
2022/11/15 11:40:32;;;;;;;8.82;6.03;;;;;;;29.24;20.03;97965.47;6216495;23;20062;-82
2022/11/15 11:43:28;;;;;;;8.25;5.70;;;;;;;29.41;20.04;97963.09;6216124;23;20139;-80
2022/11/15 11:46:18;;;;;;;6.78;5.35;;;;;;;29.68;19.86;97965.09;6216391;23;20012;-80
2022/11/15 11:49:05;;;;;;;7.13;5.47;;;;;;;29.87;19.71;97946.84;6216792;23;20009;-81
2022/11/15 11:51:49;;;;;;;9.13;6.23;;;;;;;29.97;19.93;97946.31;6200948;23;19939;-81
2022/11/15 11:54:30;;;;;;;10.25;6.78;;;;;;;29.87;19.71;97935.50;6216392;23;19915;-80
2022/11/15 11:57:02;;;;;;;8.13;5.63;;;;;;;29.93;19.91;97927.94;6216056;23;19935;-81
2022/11/15 11:59:49;;;;;;;8.57;5.30;;;;;;;30.12;19.80;97929.44;6217056;23;19908;-82
2022/11/15 12:02:31;;;;;;;5.65;4.80;;;;;;;30.28;20.15;97926.19;6216032;23;20352;-82